sensor_id;sensor_type;location;lat;lon;timestamp;pressure;altitude;pressure_sealevel;temperature;humidity
54920;BME280;63804;53.120;8.764;2023-08-24T00:00:28;101949.66;;;20.05;72.30
54920;BME280;63804;53.120;8.764;2023-08-24T00:02:55;101949.78;;;20.03;72.38
54920;BME280;63804;53.120;8.764;2023-08-24T00:05:23;101958.00;;;20.11;71.71
54920;BME280;63804;53.120;8.764;2023-08-24T00:07:51;101954.25;;;20.22;71.13
54920;BME280;63804;53.120;8.764;2023-08-24T00:10:20;101956.81;;;20.24;71.27
54920;BME280;63804;53.120;8.764;2023-08-24T00:12:47;101953.13;;;20.25;71.44
54920;BME280;63804;53.120;8.764;2023-08-24T00:15:14;101948.75;;;20.24;71.61
54920;BME280;63804;53.120;8.764;2023-08-24T00:17:42;101953.41;;;20.21;71.38
54920;BME280;63804;53.120;8.764;2023-08-24T00:20:09;101953.31;;;20.13;71.96
54920;BME280;63804;53.120;8.764;2023-08-24T00:22:38;101953.47;;;20.12;71.70
54920;BME280;63804;53.120;8.764;2023-08-24T00:25:07;101949.94;;;20.11;71.46
54920;BME280;63804;53.120;8.764;2023-08-24T00:27:35;101952.16;;;20.16;71.53
54920;BME280;63804;53.120;8.764;2023-08-24T00:30:04;101955.16;;;20.03;71.98
54920;BME280;63804;53.120;8.764;2023-08-24T00:32:34;101953.34;;;20.04;71.89
54920;BME280;63804;53.120;8.764;2023-08-24T00:35:02;101948.81;;;20.04;71.84
54920;BME280;63804;53.120;8.764;2023-08-24T00:37:31;101946.00;;;19.96;72.13
54920;BME280;63804;53.120;8.764;2023-08-24T00:40:04;101954.19;;;19.94;72.10
54920;BME280;63804;53.120;8.764;2023-08-24T00:42:39;101942.03;;;19.90;72.22
54920;BME280;63804;53.120;8.764;2023-08-24T00:45:08;101946.56;;;19.90;72.41
54920;BME280;63804;53.120;8.764;2023-08-24T00:47:38;101945.56;;;19.91;72.73
54920;BME280;63804;53.120;8.764;2023-08-24T00:50:07;101945.13;;;19.95;72.47
54920;BME280;63804;53.120;8.764;2023-08-24T00:52:41;101946.00;;;19.96;72.49
54920;BME280;63804;53.120;8.764;2023-08-24T00:55:09;101946.03;;;19.77;73.12
54920;BME280;63804;53.120;8.764;2023-08-24T00:57:37;101944.91;;;19.69;73.23
54920;BME280;63804;53.120;8.764;2023-08-24T01:00:06;101953.22;;;19.76;72.97
54920;BME280;63804;53.120;8.764;2023-08-24T01:02:38;101952.53;;;19.74;73.05
54920;BME280;63804;53.120;8.764;2023-08-24T01:05:06;101949.41;;;19.79;72.63
54920;BME280;63804;53.120;8.764;2023-08-24T01:07:35;101950.97;;;19.81;72.76
54920;BME280;63804;53.120;8.764;2023-08-24T01:10:05;101955.34;;;19.72;72.97
54920;BME280;63804;53.120;8.764;2023-08-24T01:15:29;101940.34;;;19.60;73.13
54920;BME280;63804;53.120;8.764;2023-08-24T01:18:05;101948.56;;;19.59;73.18
54920;BME280;63804;53.120;8.764;2023-08-24T01:20:34;101946.00;;;19.57;72.95
54920;BME280;63804;53.120;8.764;2023-08-24T01:23:37;101943.19;;;19.68;72.83
54920;BME280;63804;53.120;8.764;2023-08-24T01:26:19;101944.59;;;19.53;73.00
54920;BME280;63804;53.120;8.764;2023-08-24T01:28:48;101947.41;;;19.42;73.58
54920;BME280;63804;53.120;8.764;2023-08-24T01:31:16;101942.91;;;19.52;73.51
54920;BME280;63804;53.120;8.764;2023-08-24T01:33:45;101936.41;;;19.55;73.08
54920;BME280;63804;53.120;8.764;2023-08-24T01:36:14;101940.22;;;19.52;73.34
54920;BME280;63804;53.120;8.764;2023-08-24T01:38:47;101939.38;;;19.52;73.17
54920;BME280;63804;53.120;8.764;2023-08-24T01:41:19;101947.28;;;19.14;74.54
54920;BME280;63804;53.120;8.764;2023-08-24T01:43:51;101940.63;;;19.18;74.59
54920;BME280;63804;53.120;8.764;2023-08-24T01:46:21;101935.97;;;19.40;74.14
54920;BME280;63804;53.120;8.764;2023-08-24T01:48:50;101935.84;;;19.41;73.59
54920;BME280;63804;53.120;8.764;2023-08-24T01:51:19;101934.31;;;19.39;73.46
54920;BME280;63804;53.120;8.764;2023-08-24T01:53:47;101929.19;;;19.36;73.52
54920;BME280;63804;53.120;8.764;2023-08-24T01:56:16;101939.50;;;19.31;73.75
54920;BME280;63804;53.120;8.764;2023-08-24T01:58:43;101938.94;;;19.17;74.01
54920;BME280;63804;53.120;8.764;2023-08-24T02:01:11;101936.22;;;18.88;74.96
54920;BME280;63804;53.120;8.764;2023-08-24T02:03:40;101930.72;;;18.90;75.28
54920;BME280;63804;53.120;8.764;2023-08-24T02:06:08;101932.25;;;18.83;75.34
54920;BME280;63804;53.120;8.764;2023-08-24T02:08:35;101931.94;;;18.76;75.35
54920;BME280;63804;53.120;8.764;2023-08-24T02:11:03;101919.81;;;18.82;74.87
54920;BME280;63804;53.120;8.764;2023-08-24T02:13:30;101925.19;;;18.91;74.82
54920;BME280;63804;53.120;8.764;2023-08-24T02:16:05;101918.00;;;19.11;74.13
54920;BME280;63804;53.120;8.764;2023-08-24T02:18:32;101915.19;;;19.13;73.93
54920;BME280;63804;53.120;8.764;2023-08-24T02:21:07;101917.72;;;19.14;74.08
54920;BME280;63804;53.120;8.764;2023-08-24T02:23:34;101914.34;;;19.12;73.88
54920;BME280;63804;53.120;8.764;2023-08-24T02:26:02;101907.56;;;19.08;74.00
54920;BME280;63804;53.120;8.764;2023-08-24T02:28:30;101911.81;;;19.01;74.37
54920;BME280;63804;53.120;8.764;2023-08-24T02:31:02;101916.00;;;18.74;75.38
54920;BME280;63804;53.120;8.764;2023-08-24T02:33:30;101917.53;;;18.77;75.59
54920;BME280;63804;53.120;8.764;2023-08-24T02:35:58;101914.75;;;18.98;74.88
54920;BME280;63804;53.120;8.764;2023-08-24T02:38:25;101904.59;;;19.02;74.57
54920;BME280;63804;53.120;8.764;2023-08-24T02:41:03;101904.72;;;19.10;74.22
54920;BME280;63804;53.120;8.764;2023-08-24T02:43:31;101907.41;;;19.00;74.24
54920;BME280;63804;53.120;8.764;2023-08-24T02:46:00;101909.22;;;18.99;74.64
54920;BME280;63804;53.120;8.764;2023-08-24T02:48:30;101906.69;;;18.98;74.31
54920;BME280;63804;53.120;8.764;2023-08-24T02:50:58;101900.50;;;18.97;74.47
54920;BME280;63804;53.120;8.764;2023-08-24T02:53:26;101903.19;;;18.97;74.48
54920;BME280;63804;53.120;8.764;2023-08-24T02:55:55;101896.50;;;18.92;74.53
54920;BME280;63804;53.120;8.764;2023-08-24T02:58:22;101892.41;;;18.88;74.62
54920;BME280;63804;53.120;8.764;2023-08-24T03:00:50;101891.59;;;18.97;74.24
54920;BME280;63804;53.120;8.764;2023-08-24T03:03:17;101891.44;;;18.98;74.07
54920;BME280;63804;53.120;8.764;2023-08-24T03:06:06;101874.22;;;19.01;74.12
54920;BME280;63804;53.120;8.764;2023-08-24T03:08:34;101875.88;;;18.92;74.55
54920;BME280;63804;53.120;8.764;2023-08-24T03:11:02;101869.66;;;18.92;74.13
54920;BME280;63804;53.120;8.764;2023-08-24T03:13:30;101869.97;;;18.98;74.49
54920;BME280;63804;53.120;8.764;2023-08-24T03:16:03;101868.56;;;19.04;73.92
54920;BME280;63804;53.120;8.764;2023-08-24T03:18:31;101866.59;;;18.96;74.58
54920;BME280;63804;53.120;8.764;2023-08-24T03:20:58;101870.97;;;18.97;74.56
54920;BME280;63804;53.120;8.764;2023-08-24T03:23:26;101866.44;;;18.98;74.30
54920;BME280;63804;53.120;8.764;2023-08-24T03:25:55;101866.28;;;18.99;74.39
54920;BME280;63804;53.120;8.764;2023-08-24T03:28:22;101866.59;;;18.96;74.69
54920;BME280;63804;53.120;8.764;2023-08-24T03:30:51;101862.91;;;18.97;74.61
54920;BME280;63804;53.120;8.764;2023-08-24T03:33:19;101860.78;;;18.91;74.78
54920;BME280;63804;53.120;8.764;2023-08-24T03:35:47;101861.50;;;18.93;74.89
54920;BME280;63804;53.120;8.764;2023-08-24T03:38:15;101859.78;;;18.92;74.74
54920;BME280;63804;53.120;8.764;2023-08-24T03:40:42;101869.28;;;18.96;74.72
54920;BME280;63804;53.120;8.764;2023-08-24T03:43:10;101879.00;;;18.88;75.13
54920;BME280;63804;53.120;8.764;2023-08-24T03:45:38;101881.09;;;18.74;75.15
54920;BME280;63804;53.120;8.764;2023-08-24T03:48:08;101890.16;;;18.73;75.61
54920;BME280;63804;53.120;8.764;2023-08-24T03:50:35;101886.34;;;18.86;75.07
54920;BME280;63804;53.120;8.764;2023-08-24T03:53:03;101891.72;;;18.86;75.08
54920;BME280;63804;53.120;8.764;2023-08-24T03:55:30;101894.72;;;18.62;76.14
54920;BME280;63804;53.120;8.764;2023-08-24T03:58:00;101898.50;;;18.40;76.80
54920;BME280;63804;53.120;8.764;2023-08-24T04:00:28;101904.34;;;18.55;76.74
54920;BME280;63804;53.120;8.764;2023-08-24T04:02:55;101889.84;;;18.77;75.61
54920;BME280;63804;53.120;8.764;2023-08-24T04:05:23;101899.03;;;18.84;75.30
54920;BME280;63804;53.120;8.764;2023-08-24T04:07:51;101891.44;;;18.89;74.99
54920;BME280;63804;53.120;8.764;2023-08-24T04:10:19;101899.72;;;18.66;75.74
54920;BME280;63804;53.120;8.764;2023-08-24T04:12:47;101902.50;;;18.55;76.31
54920;BME280;63804;53.120;8.764;2023-08-24T04:15:14;101890.72;;;18.46;76.69
54920;BME280;63804;53.120;8.764;2023-08-24T04:17:42;101889.63;;;18.49;76.46
54920;BME280;63804;53.120;8.764;2023-08-24T04:20:11;101884.16;;;18.60;76.02
54920;BME280;63804;53.120;8.764;2023-08-24T04:22:38;101886.25;;;18.47;76.68
54920;BME280;63804;53.120;8.764;2023-08-24T04:25:06;101895.22;;;18.36;76.93
54920;BME280;63804;53.120;8.764;2023-08-24T04:27:34;101901.97;;;18.31;77.47
54920;BME280;63804;53.120;8.764;2023-08-24T04:30:02;101900.59;;;18.36;77.29
54920;BME280;63804;53.120;8.764;2023-08-24T04:34:26;101901.22;;;18.19;77.72
54920;BME280;63804;53.120;8.764;2023-08-24T04:36:54;101917.97;;;18.42;77.05
54920;BME280;63804;53.120;8.764;2023-08-24T04:39:21;101908.03;;;18.63;76.37
54920;BME280;63804;53.120;8.764;2023-08-24T04:41:49;101906.34;;;18.62;76.40
54920;BME280;63804;53.120;8.764;2023-08-24T04:44:16;101899.41;;;18.69;76.01
54920;BME280;63804;53.120;8.764;2023-08-24T04:46:44;101890.16;;;18.73;75.63
54920;BME280;63804;53.120;8.764;2023-08-24T04:49:11;101888.66;;;18.69;75.58
54920;BME280;63804;53.120;8.764;2023-08-24T04:51:38;101883.06;;;18.72;76.01
54920;BME280;63804;53.120;8.764;2023-08-24T04:54:06;101890.16;;;18.83;75.28
54920;BME280;63804;53.120;8.764;2023-08-24T04:56:33;101883.22;;;18.81;75.58
54920;BME280;63804;53.120;8.764;2023-08-24T04:59:01;101881.53;;;18.80;75.48
54920;BME280;63804;53.120;8.764;2023-08-24T05:01:30;101884.78;;;18.83;75.63
54920;BME280;63804;53.120;8.764;2023-08-24T05:04:00;101884.25;;;18.89;75.37
54920;BME280;63804;53.120;8.764;2023-08-24T05:06:28;101886.47;;;18.84;75.10
54920;BME280;63804;53.120;8.764;2023-08-24T05:08:56;101886.91;;;18.89;75.31
54920;BME280;63804;53.120;8.764;2023-08-24T05:11:26;101890.31;;;18.91;75.26
54920;BME280;63804;53.120;8.764;2023-08-24T05:13:54;101898.22;;;18.93;75.26
54920;BME280;63804;53.120;8.764;2023-08-24T05:16:21;101899.91;;;18.94;75.33
54920;BME280;63804;53.120;8.764;2023-08-24T05:18:49;101903.03;;;18.89;75.47
54920;BME280;63804;53.120;8.764;2023-08-24T05:21:16;101901.50;;;18.96;74.88
54920;BME280;63804;53.120;8.764;2023-08-24T05:23:44;101907.00;;;19.05;75.05
54920;BME280;63804;53.120;8.764;2023-08-24T05:26:11;101909.69;;;19.05;74.88
54920;BME280;63804;53.120;8.764;2023-08-24T05:28:39;101902.47;;;19.05;74.68
54920;BME280;63804;53.120;8.764;2023-08-24T05:31:06;101902.47;;;19.05;75.06
54920;BME280;63804;53.120;8.764;2023-08-24T05:33:33;101905.16;;;19.05;74.83
54920;BME280;63804;53.120;8.764;2023-08-24T05:36:01;101902.19;;;19.08;74.81
54920;BME280;63804;53.120;8.764;2023-08-24T05:38:29;101893.69;;;19.03;75.08
54920;BME280;63804;53.120;8.764;2023-08-24T05:40:56;101887.47;;;19.03;74.92
54920;BME280;63804;53.120;8.764;2023-08-24T05:43:24;101889.06;;;19.05;74.83
54920;BME280;63804;53.120;8.764;2023-08-24T05:45:51;101884.81;;;19.12;75.13
54920;BME280;63804;53.120;8.764;2023-08-24T05:48:19;101881.81;;;19.15;74.68
54920;BME280;63804;53.120;8.764;2023-08-24T05:50:47;101886.06;;;19.18;75.12
54920;BME280;63804;53.120;8.764;2023-08-24T05:53:14;101891.59;;;19.16;74.94
54920;BME280;63804;53.120;8.764;2023-08-24T05:55:42;101887.50;;;19.12;75.05
54920;BME280;63804;53.120;8.764;2023-08-24T05:58:09;101883.28;;;19.19;74.72
54920;BME280;63804;53.120;8.764;2023-08-24T06:00:36;101883.28;;;19.19;75.02
54920;BME280;63804;53.120;8.764;2023-08-24T06:03:04;101883.38;;;19.18;75.26
54920;BME280;63804;53.120;8.764;2023-08-24T06:05:31;101870.25;;;19.15;74.94
54920;BME280;63804;53.120;8.764;2023-08-24T06:07:59;101873.66;;;19.17;75.30
54920;BME280;63804;53.120;8.764;2023-08-24T06:10:26;101877.19;;;19.27;75.07
54920;BME280;63804;53.120;8.764;2023-08-24T06:12:54;101873.63;;;19.27;74.87
54920;BME280;63804;53.120;8.764;2023-08-24T06:15:22;101881.41;;;19.10;75.41
54920;BME280;63804;53.120;8.764;2023-08-24T06:17:51;101869.53;;;19.03;75.68
54920;BME280;63804;53.120;8.764;2023-08-24T06:20:19;101874.34;;;19.19;75.42
54920;BME280;63804;53.120;8.764;2023-08-24T06:22:47;101864.28;;;19.31;75.45
54920;BME280;63804;53.120;8.764;2023-08-24T06:25:14;101881.53;;;19.47;75.01
54920;BME280;63804;53.120;8.764;2023-08-24T06:27:42;101869.34;;;19.53;74.42
54920;BME280;63804;53.120;8.764;2023-08-24T06:30:09;101865.25;;;19.59;74.36
54920;BME280;63804;53.120;8.764;2023-08-24T06:32:38;101856.19;;;19.60;73.99
54920;BME280;63804;53.120;8.764;2023-08-24T06:35:06;101858.75;;;19.61;73.85
54920;BME280;63804;53.120;8.764;2023-08-24T06:37:33;101854.25;;;19.62;73.98
54920;BME280;63804;53.120;8.764;2023-08-24T06:40:01;101850.25;;;19.56;74.35
54920;BME280;63804;53.120;8.764;2023-08-24T06:42:30;101857.03;;;19.60;74.26
54920;BME280;63804;53.120;8.764;2023-08-24T06:44:58;101845.59;;;19.58;74.06
54920;BME280;63804;53.120;8.764;2023-08-24T06:47:25;101845.59;;;19.58;74.53
54920;BME280;63804;53.120;8.764;2023-08-24T06:49:53;101846.03;;;19.63;74.38
54920;BME280;63804;53.120;8.764;2023-08-24T06:52:20;101848.84;;;19.71;73.68
54920;BME280;63804;53.120;8.764;2023-08-24T06:54:48;101861.44;;;19.71;73.92
54920;BME280;63804;53.120;8.764;2023-08-24T06:57:20;101852.09;;;19.75;73.61
54920;BME280;63804;53.120;8.764;2023-08-24T06:59:48;101847.56;;;19.76;73.21
54920;BME280;63804;53.120;8.764;2023-08-24T07:02:15;101843.44;;;19.81;73.43
54920;BME280;63804;53.120;8.764;2023-08-24T07:04:44;101844.69;;;19.87;73.59
54920;BME280;63804;53.120;8.764;2023-08-24T07:07:13;101835.34;;;19.91;73.08
54920;BME280;63804;53.120;8.764;2023-08-24T07:09:40;101839.47;;;19.85;73.13
54920;BME280;63804;53.120;8.764;2023-08-24T07:12:09;101833.19;;;19.94;73.25
54920;BME280;63804;53.120;8.764;2023-08-24T07:14:37;101824.56;;;20.01;73.21
54920;BME280;63804;53.120;8.764;2023-08-24T07:17:05;101829.47;;;20.05;73.16
54920;BME280;63804;53.120;8.764;2023-08-24T07:19:33;101828.63;;;20.05;73.28
54920;BME280;63804;53.120;8.764;2023-08-24T07:22:01;101815.88;;;20.07;73.28
54920;BME280;63804;53.120;8.764;2023-08-24T07:24:28;101811.03;;;20.10;72.68
54920;BME280;63804;53.120;8.764;2023-08-24T07:27:10;101806.91;;;20.16;72.92
54920;BME280;63804;53.120;8.764;2023-08-24T07:29:38;101816.00;;;20.33;72.45
54920;BME280;63804;53.120;8.764;2023-08-24T07:32:05;101815.97;;;20.42;72.20
54920;BME280;63804;53.120;8.764;2023-08-24T07:34:33;101813.19;;;20.34;72.55
54920;BME280;63804;53.120;8.764;2023-08-24T07:37:00;101821.84;;;20.28;72.36
54920;BME280;63804;53.120;8.764;2023-08-24T07:39:28;101810.53;;;20.25;73.04
54920;BME280;63804;53.120;8.764;2023-08-24T07:41:56;101802.78;;;20.21;72.73
54920;BME280;63804;53.120;8.764;2023-08-24T07:44:23;101804.03;;;20.27;72.44
54920;BME280;63804;53.120;8.764;2023-08-24T07:46:51;101794.94;;;20.28;72.33
54920;BME280;63804;53.120;8.764;2023-08-24T07:49:18;101791.50;;;20.36;72.62
54920;BME280;63804;53.120;8.764;2023-08-24T07:51:45;101787.03;;;20.44;72.04
54920;BME280;63804;53.120;8.764;2023-08-24T07:54:14;101781.38;;;20.48;72.29
54920;BME280;63804;53.120;8.764;2023-08-24T07:56:42;101786.31;;;20.52;72.52
54920;BME280;63804;53.120;8.764;2023-08-24T07:59:09;101783.19;;;20.57;72.02
54920;BME280;63804;53.120;8.764;2023-08-24T08:01:37;101791.78;;;20.60;71.88
54920;BME280;63804;53.120;8.764;2023-08-24T08:04:04;101786.56;;;20.59;72.06
54920;BME280;63804;53.120;8.764;2023-08-24T08:06:32;101775.25;;;20.55;71.52
54920;BME280;63804;53.120;8.764;2023-08-24T08:08:59;101771.66;;;20.64;71.50
54920;BME280;63804;53.120;8.764;2023-08-24T08:11:28;101769.16;;;20.71;71.52
54920;BME280;63804;53.120;8.764;2023-08-24T08:13:55;101768.09;;;20.82;71.33
54920;BME280;63804;53.120;8.764;2023-08-24T08:16:23;101773.53;;;20.90;70.69
54920;BME280;63804;53.120;8.764;2023-08-24T08:18:50;101768.56;;;20.95;70.33
54920;BME280;63804;53.120;8.764;2023-08-24T08:21:17;101771.78;;;20.99;69.94
54920;BME280;63804;53.120;8.764;2023-08-24T08:23:49;101769.75;;;21.01;69.70
54920;BME280;63804;53.120;8.764;2023-08-24T08:26:16;101771.69;;;21.08;69.26
54920;BME280;63804;53.120;8.764;2023-08-24T08:28:44;101773.41;;;21.17;68.63
54920;BME280;63804;53.120;8.764;2023-08-24T08:31:11;101773.94;;;21.21;68.31
54920;BME280;63804;53.120;8.764;2023-08-24T08:33:39;101779.56;;;21.28;67.87
54920;BME280;63804;53.120;8.764;2023-08-24T08:36:07;101778.97;;;21.34;67.38
54920;BME280;63804;53.120;8.764;2023-08-24T08:38:34;101782.72;;;21.41;67.56
54920;BME280;63804;53.120;8.764;2023-08-24T08:41:03;101775.16;;;21.45;66.32
54920;BME280;63804;53.120;8.764;2023-08-24T08:43:31;101780.06;;;21.49;65.54
54920;BME280;63804;53.120;8.764;2023-08-24T08:45:59;101772.88;;;21.58;65.05
54920;BME280;63804;53.120;8.764;2023-08-24T08:48:30;101782.16;;;21.63;63.74
54920;BME280;63804;53.120;8.764;2023-08-24T08:50:58;101782.84;;;21.65;62.91
54920;BME280;63804;53.120;8.764;2023-08-24T08:53:26;101782.69;;;21.67;63.22
54920;BME280;63804;53.120;8.764;2023-08-24T08:55:55;101786.97;;;21.78;63.75
54920;BME280;63804;53.120;8.764;2023-08-24T08:58:25;101787.66;;;21.80;63.29
54920;BME280;63804;53.120;8.764;2023-08-24T09:00:54;101773.34;;;21.79;63.01
54920;BME280;63804;53.120;8.764;2023-08-24T09:03:22;101767.94;;;21.79;64.31
54920;BME280;63804;53.120;8.764;2023-08-24T09:05:50;101773.69;;;21.84;64.34
54920;BME280;63804;53.120;8.764;2023-08-24T09:08:17;101770.13;;;21.84;63.92
54920;BME280;63804;53.120;8.764;2023-08-24T09:10:45;101766.59;;;21.83;64.82
54920;BME280;63804;53.120;8.764;2023-08-24T09:13:12;101765.09;;;21.89;64.18
54920;BME280;63804;53.120;8.764;2023-08-24T09:15:40;101766.13;;;21.96;64.15
54920;BME280;63804;53.120;8.764;2023-08-24T09:18:07;101748.94;;;21.97;63.45
54920;BME280;63804;53.120;8.764;2023-08-24T09:20:35;101735.44;;;21.97;63.25
54920;BME280;63804;53.120;8.764;2023-08-24T09:23:03;101738.84;;;21.99;63.22
54920;BME280;63804;53.120;8.764;2023-08-24T09:25:30;101742.72;;;22.05;63.20
54920;BME280;63804;53.120;8.764;2023-08-24T09:28:00;101742.75;;;22.13;63.02
54920;BME280;63804;53.120;8.764;2023-08-24T09:30:32;101733.81;;;22.12;63.20
54920;BME280;63804;53.120;8.764;2023-08-24T09:33:09;101728.13;;;22.24;62.83
54920;BME280;63804;53.120;8.764;2023-08-24T09:35:37;101720.72;;;22.26;62.71
54920;BME280;63804;53.120;8.764;2023-08-24T09:38:23;101713.16;;;22.29;62.44
54920;BME280;63804;53.120;8.764;2023-08-24T09:40:53;101723.75;;;22.31;63.08
54920;BME280;63804;53.120;8.764;2023-08-24T09:43:21;101715.16;;;22.35;62.93
54920;BME280;63804;53.120;8.764;2023-08-24T09:45:54;101701.34;;;22.38;62.98
54920;BME280;63804;53.120;8.764;2023-08-24T09:48:22;101702.50;;;22.36;64.08
54920;BME280;63804;53.120;8.764;2023-08-24T09:50:56;101699.16;;;22.50;63.32
54920;BME280;63804;53.120;8.764;2023-08-24T09:53:24;101688.34;;;22.50;63.60
54920;BME280;63804;53.120;8.764;2023-08-24T09:56:01;101683.13;;;22.49;63.13
54920;BME280;63804;53.120;8.764;2023-08-24T09:58:30;101678.38;;;22.43;63.54
54920;BME280;63804;53.120;8.764;2023-08-24T10:00:58;101677.41;;;22.44;63.57
54920;BME280;63804;53.120;8.764;2023-08-24T10:03:26;101670.47;;;22.49;63.29
54920;BME280;63804;53.120;8.764;2023-08-24T10:05:56;101669.63;;;22.57;63.89
54920;BME280;63804;53.120;8.764;2023-08-24T10:08:36;101671.47;;;22.65;63.57
54920;BME280;63804;53.120;8.764;2023-08-24T10:11:08;101668.13;;;22.71;63.46
54920;BME280;63804;53.120;8.764;2023-08-24T10:14:04;101660.84;;;22.79;63.30
54920;BME280;63804;53.120;8.764;2023-08-24T10:16:36;101657.63;;;22.76;63.12
54920;BME280;63804;53.120;8.764;2023-08-24T10:19:04;101655.09;;;22.82;63.15
54920;BME280;63804;53.120;8.764;2023-08-24T10:21:33;101654.09;;;22.92;62.89
54920;BME280;63804;53.120;8.764;2023-08-24T10:24:01;101655.91;;;23.07;62.04
54920;BME280;63804;53.120;8.764;2023-08-24T10:26:29;101659.78;;;23.13;61.81
54920;BME280;63804;53.120;8.764;2023-08-24T10:28:58;101639.81;;;23.22;61.65
54920;BME280;63804;53.120;8.764;2023-08-24T10:31:27;101634.91;;;23.26;61.14
54920;BME280;63804;53.120;8.764;2023-08-24T10:33:56;101627.09;;;23.31;61.12
54920;BME280;63804;53.120;8.764;2023-08-24T10:36:24;101625.06;;;23.33;60.80
54920;BME280;63804;53.120;8.764;2023-08-24T10:38:55;101622.69;;;23.38;61.08
54920;BME280;63804;53.120;8.764;2023-08-24T10:41:27;101616.25;;;23.47;61.21
54920;BME280;63804;53.120;8.764;2023-08-24T10:44:05;101614.13;;;23.57;59.96
54920;BME280;63804;53.120;8.764;2023-08-24T10:46:36;101610.06;;;23.62;60.00
54920;BME280;63804;53.120;8.764;2023-08-24T10:49:04;101602.97;;;23.60;59.78
54920;BME280;63804;53.120;8.764;2023-08-24T10:51:42;101592.97;;;23.69;59.12
54920;BME280;63804;53.120;8.764;2023-08-24T10:54:10;101606.09;;;23.80;58.97
54920;BME280;63804;53.120;8.764;2023-08-24T10:56:39;101610.25;;;23.91;57.61
54920;BME280;63804;53.120;8.764;2023-08-24T10:59:17;101604.59;;;24.01;57.96
54920;BME280;63804;53.120;8.764;2023-08-24T11:01:54;101605.25;;;24.03;57.87
54920;BME280;63804;53.120;8.764;2023-08-24T11:04:22;101595.81;;;23.99;57.79
54920;BME280;63804;53.120;8.764;2023-08-24T11:06:56;101592.81;;;24.17;57.42
54920;BME280;63804;53.120;8.764;2023-08-24T11:09:26;101596.47;;;24.24;57.13
54920;BME280;63804;53.120;8.764;2023-08-24T11:12:11;101590.94;;;24.17;56.71
54920;BME280;63804;53.120;8.764;2023-08-24T11:14:49;101580.41;;;24.22;57.42
54920;BME280;63804;53.120;8.764;2023-08-24T11:17:19;101567.41;;;24.18;57.29
54920;BME280;63804;53.120;8.764;2023-08-24T11:19:51;101561.63;;;24.21;56.18
54920;BME280;63804;53.120;8.764;2023-08-24T11:22:19;101554.84;;;24.25;55.76
54920;BME280;63804;53.120;8.764;2023-08-24T11:24:48;101555.50;;;24.27;55.79
54920;BME280;63804;53.120;8.764;2023-08-24T11:27:15;101545.88;;;24.24;55.62
54920;BME280;63804;53.120;8.764;2023-08-24T11:29:43;101553.53;;;24.21;55.99
54920;BME280;63804;53.120;8.764;2023-08-24T11:32:11;101551.09;;;24.26;56.03
54920;BME280;63804;53.120;8.764;2023-08-24T11:34:38;101537.88;;;24.31;56.59
54920;BME280;63804;53.120;8.764;2023-08-24T11:37:06;101542.88;;;24.34;55.83
54920;BME280;63804;53.120;8.764;2023-08-24T11:39:33;101537.66;;;24.32;56.14
54920;BME280;63804;53.120;8.764;2023-08-24T11:44:46;101526.91;;;24.47;56.36
54920;BME280;63804;53.120;8.764;2023-08-24T11:47:19;101515.31;;;24.68;55.86
54920;BME280;63804;53.120;8.764;2023-08-24T11:49:47;101508.56;;;24.79;54.79
54920;BME280;63804;53.120;8.764;2023-08-24T11:52:14;101496.22;;;24.91;54.50
54920;BME280;63804;53.120;8.764;2023-08-24T11:54:43;101496.56;;;25.03;54.16
54920;BME280;63804;53.120;8.764;2023-08-24T11:57:11;101503.81;;;24.96;54.17
54920;BME280;63804;53.120;8.764;2023-08-24T11:59:39;101500.81;;;24.91;54.06
54920;BME280;63804;53.120;8.764;2023-08-24T12:02:08;101499.34;;;24.73;54.28
54920;BME280;63804;53.120;8.764;2023-08-24T12:04:40;101505.69;;;24.66;54.22
54920;BME280;63804;53.120;8.764;2023-08-24T12:07:11;101490.84;;;24.62;54.30
54920;BME280;63804;53.120;8.764;2023-08-24T12:09:40;101488.97;;;24.62;53.87
54920;BME280;63804;53.120;8.764;2023-08-24T12:12:19;101486.38;;;24.69;54.50
54920;BME280;63804;53.120;8.764;2023-08-24T12:14:49;101474.66;;;24.68;54.93
54920;BME280;63804;53.120;8.764;2023-08-24T12:17:17;101465.69;;;24.68;55.07
54920;BME280;63804;53.120;8.764;2023-08-24T12:19:57;101469.09;;;24.70;54.70
54920;BME280;63804;53.120;8.764;2023-08-24T12:22:24;101457.19;;;24.71;54.68
54920;BME280;63804;53.120;8.764;2023-08-24T12:24:52;101456.94;;;24.80;53.79
54920;BME280;63804;53.120;8.764;2023-08-24T12:27:23;101458.41;;;24.83;53.61
54920;BME280;63804;53.120;8.764;2023-08-24T12:29:51;101462.88;;;24.91;53.72
54920;BME280;63804;53.120;8.764;2023-08-24T12:32:20;101451.19;;;24.90;55.08
54920;BME280;63804;53.120;8.764;2023-08-24T12:34:50;101451.03;;;24.92;55.10
54920;BME280;63804;53.120;8.764;2023-08-24T12:37:22;101444.34;;;24.94;55.25
54920;BME280;63804;53.120;8.764;2023-08-24T12:39:49;101441.00;;;24.92;54.45
54920;BME280;63804;53.120;8.764;2023-08-24T12:42:17;101442.03;;;24.91;55.07
54920;BME280;63804;53.120;8.764;2023-08-24T12:44:44;101438.09;;;24.94;55.13
54920;BME280;63804;53.120;8.764;2023-08-24T12:47:11;101442.31;;;24.96;55.61
54920;BME280;63804;53.120;8.764;2023-08-24T12:49:39;101436.69;;;24.98;55.62
54920;BME280;63804;53.120;8.764;2023-08-24T12:52:06;101425.47;;;25.01;55.97
54920;BME280;63804;53.120;8.764;2023-08-24T12:54:34;101422.56;;;25.02;56.07
54920;BME280;63804;53.120;8.764;2023-08-24T12:57:01;101423.38;;;25.03;55.77
54920;BME280;63804;53.120;8.764;2023-08-24T12:59:29;101422.47;;;25.11;54.96
54920;BME280;63804;53.120;8.764;2023-08-24T13:01:56;101423.78;;;25.15;55.96
54920;BME280;63804;53.120;8.764;2023-08-24T13:04:24;101413.44;;;25.25;55.66
54920;BME280;63804;53.120;8.764;2023-08-24T13:06:51;101414.59;;;25.37;54.38